Time;durP1;ratioP1;P1;durP2;ratioP2;P2;SDS_P1;SDS_P2;PMS_P1;PMS_P2;Temp;Humidity;BMP_temperature;BMP_pressure;BME280_temperature;BME280_humidity;BME280_pressure;Samples;Min_cycle;Max_cycle;Signal;HPM_P1;HPM_P2
2022/08/15 00:02:09;;;;;;;5.65;3.25;;;20.60;99.90;;;;;;5090930;28;20060;-84
2022/08/15 00:05:22;;;;;;;7.25;3.30;;;20.70;99.90;;;;;;5097598;28;20092;-83
2022/08/15 00:08:10;;;;;;;4.72;3.30;;;20.80;99.90;;;;;;5101667;28;20055;-84
2022/08/15 00:11:24;;;;;;;3.72;2.85;;;20.80;99.90;;;;;;5095822;28;20203;-82
2022/08/15 00:14:19;;;;;;;4.72;3.40;;;20.90;99.90;;;;;;5099780;28;20343;-83
2022/08/15 00:17:20;;;;;;;4.43;3.40;;;20.90;99.90;;;;;;5104741;27;20055;-84
2022/08/15 00:20:11;;;;;;;5.00;3.55;;;20.90;99.90;;;;;;5109895;28;20070;-83
2022/08/15 00:23:26;;;;;;;4.47;3.47;;;20.90;99.90;;;;;;5112798;28;20048;-83
2022/08/15 00:26:16;;;;;;;3.78;3.47;;;20.80;99.90;;;;;;5110977;28;20453;-82
2022/08/15 00:29:12;;;;;;;5.18;3.53;;;20.60;1.00;;;;;;5121753;27;20123;-82
2022/08/15 00:32:03;;;;;;;5.40;4.15;;;20.50;1.00;;;;;;5107947;28;20047;-86
2022/08/15 00:38:31;;;;;;;4.47;3.90;;;20.30;1.00;;;;;;5103031;27;20050;-84
2022/08/15 00:41:41;;;;;;;6.18;3.80;;;20.20;1.00;;;;;;5129474;27;20762;-82
2022/08/15 00:44:42;;;;;;;4.57;3.90;;;20.10;1.00;;;;;;5116288;28;20095;-85
2022/08/15 00:51:06;;;;;;;;;;;19.80;1.00;;;;;;5118207;28;20071;-82
2022/08/15 00:53:58;;;;;;;9.10;4.53;;;19.80;1.00;;;;;;5109873;28;20243;-83
2022/08/15 00:56:48;;;;;;;;;;;19.70;1.00;;;;;;5121359;27;20071;-83
2022/08/15 00:59:44;;;;;;;5.90;3.92;;;19.70;1.00;;;;;;5106065;28;20011;-83
2022/08/15 01:02:42;;;;;;;8.25;4.45;;;19.70;1.00;;;;;;5106329;28;20044;-81
2022/08/15 01:05:34;;;;;;;7.00;4.70;;;19.60;1.00;;;;;;5116214;28;20044;-86
2022/08/15 01:08:29;;;;;;;6.78;4.47;;;19.60;1.00;;;;;;5112044;28;20059;-83
2022/08/15 01:11:31;;;;;;;7.22;4.53;;;19.60;1.00;;;;;;5111123;27;20200;-84
2022/08/15 01:14:21;;;;;;;7.03;4.90;;;19.70;1.00;;;;;;5105492;28;20043;-84
2022/08/15 01:17:30;;;;;;;10.05;4.57;;;19.60;1.00;;;;;;5110266;27;20036;-83
2022/08/15 01:20:26;;;;;;;10.57;4.97;;;19.60;1.00;;;;;;5098724;28;20056;-83
2022/08/15 01:23:40;;;;;;;6.10;4.40;;;19.60;1.00;;;;;;5111613;28;20039;-84
2022/08/15 01:26:41;;;;;;;9.02;5.25;;;19.70;1.00;;;;;;5103606;27;20153;-82
2022/08/15 01:29:32;;;;;;;6.68;4.53;;;19.60;1.00;;;;;;5114593;28;20062;-83
2022/08/15 01:32:21;;;;;;;8.23;4.72;;;19.60;1.00;;;;;;5101338;28;20492;-83
2022/08/15 01:35:13;;;;;;;8.73;4.75;;;19.50;1.00;;;;;;5096561;28;20044;-84
2022/08/15 01:38:02;;;;;;;7.72;4.30;;;19.50;1.00;;;;;;5109205;28;20035;-84
2022/08/15 01:41:19;;;;;;;8.23;4.47;;;19.50;1.00;;;;;;5086957;28;20390;-85
2022/08/15 01:44:48;;;;;;;12.68;4.65;;;19.50;1.00;;;;;;5114666;28;20055;-84
2022/08/15 01:47:58;;;;;;;8.57;4.47;;;19.40;1.00;;;;;;5113058;28;20043;-85
2022/08/15 01:50:53;;;;;;;8.20;4.72;;;19.40;1.00;;;;;;5110099;28;20490;-83
2022/08/15 01:53:54;;;;;;;6.43;4.38;;;19.50;1.00;;;;;;5114174;28;20072;-86
2022/08/15 01:56:46;;;;;;;8.05;4.32;;;19.50;1.00;;;;;;5094038;28;20036;-83
2022/08/15 01:59:34;;;;;;;6.50;4.22;;;19.50;1.00;;;;;;5080635;28;20374;-82
2022/08/15 02:02:22;;;;;;;8.02;4.10;;;19.40;1.00;;;;;;5116605;27;20461;-84
2022/08/15 02:05:29;;;;;;;8.45;4.18;;;19.40;1.00;;;;;;5112478;28;20073;-84
2022/08/15 02:08:17;;;;;;;7.60;4.55;;;19.50;1.00;;;;;;5122602;27;20050;-83
2022/08/15 02:11:25;;;;;;;7.10;3.88;;;19.50;1.00;;;;;;5113468;28;20433;-83
2022/08/15 02:14:27;;;;;;;10.50;3.90;;;19.50;1.00;;;;;;5106694;27;20040;-84
2022/08/15 02:17:27;;;;;;;9.73;4.55;;;19.50;1.00;;;;;;5111689;28;20077;-83
2022/08/15 02:20:20;;;;;;;6.72;4.00;;;19.50;1.00;;;;;;5111714;28;20113;-83
2022/08/15 02:23:13;;;;;;;9.10;4.13;;;19.50;1.00;;;;;;5110871;28;20048;-83
2022/08/15 02:26:08;;;;;;;9.90;4.60;;;19.40;1.00;;;;;;5112460;28;20040;-86
2022/08/15 02:28:56;;;;;;;7.57;3.95;;;19.40;1.00;;;;;;5116220;27;20510;-82
2022/08/15 02:31:53;;;;;;;8.25;3.90;;;19.30;1.00;;;;;;5104439;28;20075;-84
2022/08/15 02:34:46;;;;;;;5.67;3.67;;;19.30;1.00;;;;;;5115285;27;20051;-83
2022/08/15 02:37:37;;;;;;;6.20;3.58;;;19.30;1.00;;;;;;5101078;28;20127;-83
2022/08/15 02:40:29;;;;;;;5.78;3.97;;;19.30;1.00;;;;;;5101303;28;20447;-84
2022/08/15 02:43:33;;;;;;;6.18;3.83;;;19.20;1.00;;;;;;5113182;27;20044;-84
2022/08/15 02:46:22;;;;;;;7.43;3.78;;;19.20;1.00;;;;;;5113662;28;20165;-82
2022/08/15 02:49:22;;;;;;;8.52;4.00;;;19.10;1.00;;;;;;5105975;28;20039;-84
2022/08/15 02:52:11;;;;;;;5.10;3.35;;;19.20;1.00;;;;;;5103228;28;20476;-84
2022/08/15 02:55:09;;;;;;;7.15;3.40;;;19.10;1.00;;;;;;5100125;28;20047;-82
2022/08/15 02:58:03;;;;;;;5.93;3.67;;;19.00;1.00;;;;;;5102908;28;20043;-81
2022/08/15 03:00:54;;;;;;;7.25;3.88;;;18.90;1.00;;;;;;5111967;28;20539;-83
2022/08/15 03:03:47;;;;;;;5.53;3.80;;;18.90;14.40;;;;;;5112665;28;20058;-85
2022/08/15 03:06:37;;;;;;;6.75;3.70;;;18.80;37.30;;;;;;5113981;28;20382;-85
2022/08/15 03:09:28;;;;;;;11.88;4.55;;;18.70;73.40;;;;;;5100224;28;20047;-84
2022/08/15 03:12:20;;;;;;;8.88;4.75;;;18.50;99.90;;;;;;5103084;28;20096;-81
2022/08/15 03:15:19;;;;;;;7.00;4.82;;;18.30;99.90;;;;;;5112349;28;20496;-82
2022/08/15 03:18:06;;;;;;;7.80;5.40;;;17.90;1.00;;;;;;5109785;28;20126;-81
2022/08/15 03:20:57;;;;;;;7.22;5.25;;;17.70;1.00;;;;;;5112256;28;20054;-81
2022/08/15 03:23:48;;;;;;;9.30;5.93;;;17.50;99.90;;;;;;5098768;28;20512;-81
2022/08/15 03:26:39;;;;;;;14.10;6.78;;;17.50;1.00;;;;;;5112293;28;20122;-82
2022/08/15 03:29:35;;;;;;;6.25;4.95;;;17.50;99.90;;;;;;5113020;28;20051;-85
2022/08/15 03:32:49;;;;;;;9.07;5.43;;;17.50;99.90;;;;;;5105510;28;20055;-82
2022/08/15 03:35:47;;;;;;;10.15;5.93;;;17.60;99.90;;;;;;5120209;28;20045;-81
2022/08/15 03:38:44;;;;;;;;;;;17.60;1.00;;;;;;5085200;28;20066;-83
2022/08/15 03:41:37;;;;;;;9.10;5.50;;;17.60;99.90;;;;;;5106861;28;19954;-83
2022/08/15 03:44:25;;;;;;;6.85;5.00;;;17.60;99.90;;;;;;5112554;28;20089;-84
2022/08/15 03:47:15;;;;;;;7.63;5.32;;;17.70;99.90;;;;;;5115511;28;20058;-85
2022/08/15 03:50:05;;;;;;;9.25;5.25;;;17.70;99.90;;;;;;5101125;28;20374;-83
2022/08/15 03:53:15;;;;;;;7.55;5.47;;;17.70;99.90;;;;;;5107044;28;20084;-82
2022/08/15 03:56:05;;;;;;;8.32;4.85;;;17.70;99.90;;;;;;5108090;28;20458;-81
2022/08/15 03:58:56;;;;;;;7.57;4.72;;;17.80;99.90;;;;;;5115909;28;20116;-84
2022/08/15 04:01:44;;;;;;;9.55;5.50;;;17.80;25.80;;;;;;5107565;28;20039;-82
2022/08/15 04:04:34;;;;;;;6.13;4.97;;;17.70;28.90;;;;;;5097192;28;20040;-81
2022/08/15 04:07:21;;;;;;;9.50;5.07;;;17.70;41.30;;;;;;5101649;28;20141;-83
2022/08/15 04:10:17;;;;;;;6.93;5.15;;;17.70;99.90;;;;;;5128082;27;20057;-85
2022/08/15 04:13:25;;;;;;;8.32;5.13;;;17.70;91.60;;;;;;5118124;27;20049;-82
2022/08/15 04:16:13;;;;;;;7.32;5.68;;;17.70;99.90;;;;;;5101408;28;20048;-83
2022/08/15 04:19:21;;;;;;;12.52;5.90;;;17.70;99.90;;;;;;5112955;28;20490;-82
2022/08/15 04:22:08;;;;;;;11.10;4.95;;;17.70;1.00;;;;;;5097055;28;20052;-83
2022/08/15 04:25:00;;;;;;;8.10;5.20;;;17.70;1.00;;;;;;5114101;28;20082;-81
2022/08/15 04:27:59;;;;;;;8.50;5.03;;;17.70;1.00;;;;;;5116023;27;20055;-84
2022/08/15 04:30:53;;;;;;;7.80;4.63;;;17.70;1.00;;;;;;5113784;27;20054;-81
2022/08/15 04:33:41;;;;;;;7.57;4.75;;;17.70;1.00;;;;;;5127343;27;20047;-84
2022/08/15 04:36:48;;;;;;;7.40;5.03;;;17.70;1.00;;;;;;5113716;28;20100;-83
2022/08/15 04:39:36;;;;;;;6.45;4.63;;;17.70;1.00;;;;;;5100703;28;20461;-84
2022/08/15 04:42:24;;;;;;;7.55;4.65;;;17.60;99.90;;;;;;5121187;27;20057;-82
2022/08/15 04:45:12;;;;;;;7.68;4.40;;;17.70;99.90;;;;;;5118255;27;20035;-83
2022/08/15 04:48:03;;;;;;;5.65;4.53;;;17.70;99.90;;;;;;5092424;28;20048;-84
2022/08/15 04:51:06;;;;;;;6.13;4.28;;;17.70;99.90;;;;;;5109094;27;20110;-85
2022/08/15 04:54:09;;;;;;;4.80;4.22;;;17.70;99.90;;;;;;5104405;28;20081;-84
2022/08/15 04:57:00;;;;;;;6.53;4.07;;;17.80;99.90;;;;;;5099338;28;20350;-89
2022/08/15 04:59:48;;;;;;;7.63;3.88;;;17.80;99.90;;;;;;5124032;27;20089;-85
2022/08/15 05:03:10;;;;;;;9.02;3.95;;;17.80;69.40;;;;;;5104176;27;20062;-90
2022/08/15 05:06:04;;;;;;;5.93;3.75;;;17.80;67.80;;;;;;5136321;27;20057;-90
2022/08/15 05:09:13;;;;;;;9.23;4.00;;;17.70;6.80;;;;;;5103114;28;20115;-86
2022/08/15 05:12:01;;;;;;;5.20;3.50;;;17.70;12.30;;;;;;5129662;27;20046;-88
2022/08/15 05:14:58;;;;;;;6.70;3.20;;;17.70;18.70;;;;;;5140265;27;20043;-87
2022/08/15 05:17:47;;;;;;;6.72;3.47;;;17.70;7.10;;;;;;5119007;27;20063;-87
2022/08/15 05:20:44;;;;;;;5.28;3.33;;;17.70;94.20;;;;;;5101424;27;20048;-88
2022/08/15 05:23:42;;;;;;;5.80;3.55;;;17.60;17.70;;;;;;5092967;28;20059;-89
2022/08/15 05:26:33;;;;;;;5.05;3.40;;;17.60;59.20;;;;;;5112855;28;20044;-84
2022/08/15 05:29:42;;;;;;;4.95;3.47;;;17.60;99.90;;;;;;5106555;27;20059;-89
2022/08/15 05:32:29;;;;;;;6.25;3.95;;;17.40;1.00;;;;;;5100331;27;20185;-87
2022/08/15 05:35:19;;;;;;;4.40;3.50;;;17.20;1.00;;;;;;5100036;28;20050;-88
2022/08/15 05:38:09;;;;;;;5.53;3.10;;;17.20;99.90;;;;;;5103397;27;20036;-88
2022/08/15 05:41:30;;;;;;;4.63;3.38;;;17.30;99.90;;;;;;5118653;27;20044;-90
2022/08/15 05:44:45;;;;;;;4.15;3.00;;;17.30;99.90;;;;;;5117391;27;20051;-87
2022/08/15 05:47:35;;;;;;;3.67;2.85;;;17.40;99.90;;;;;;5099167;28;20048;-89
2022/08/15 05:50:38;;;;;;;6.88;3.53;;;17.40;99.90;;;;;;5121230;27;20066;-87
2022/08/15 05:54:01;;;;;;;4.80;3.40;;;17.50;82.60;;;;;;5112040;27;20050;-89
2022/08/15 05:57:03;;;;;;;3.72;3.08;;;17.50;1.00;;;;;;5104725;27;20039;-87
2022/08/15 06:00:06;;;;;;;6.47;3.33;;;17.50;1.00;;;;;;5112318;27;20031;-87
2022/08/15 06:03:44;;;;;;;;;;;;;;;;;;;;;
2022/08/15 06:06:54;;;;;;;6.20;3.35;;;17.60;1.00;;;;;;5113492;27;20060;-89
2022/08/15 06:10:13;;;;;;;5.30;3.33;;;17.70;1.00;;;;;;5108484;27;20034;-86
2022/08/15 06:13:27;;;;;;;3.65;2.72;;;17.80;99.90;;;;;;5115670;27;20054;-90
2022/08/15 06:16:48;;;;;;;6.47;3.10;;;17.90;99.90;;;;;;5115245;27;20415;-87
2022/08/15 06:19:51;;;;;;;3.20;2.60;;;18.00;99.90;;;;;;5113920;27;20035;-89
2022/08/15 06:23:05;;;;;;;4.45;2.55;;;18.00;99.90;;;;;;5107685;28;20118;-87
2022/08/15 06:26:28;;;;;;;4.45;2.85;;;18.00;99.90;;;;;;5107411;27;20039;-89
2022/08/15 06:29:33;;;;;;;4.20;2.90;;;17.90;99.90;;;;;;5112234;27;20055;-89
2022/08/15 06:32:57;;;;;;;11.63;3.15;;;18.00;99.90;;;;;;5118985;27;20035;-85
2022/08/15 06:35:59;;;;;;;3.88;2.88;;;18.20;99.90;;;;;;5109246;27;20478;-88
2022/08/15 06:39:04;;;;;;;4.50;2.97;;;18.30;99.90;;;;;;5102792;27;20117;-90
2022/08/15 06:42:07;;;;;;;4.93;2.88;;;18.40;99.90;;;;;;5112424;27;20075;-88
2022/08/15 06:45:04;;;;;;;3.97;2.83;;;18.70;99.90;;;;;;5107080;27;20120;-89
2022/08/15 06:47:58;;;;;;;4.10;2.70;;;18.90;99.90;;;;;;5095470;28;20106;-89
2022/08/15 06:50:54;;;;;;;4.82;3.13;;;19.00;99.90;;;;;;5092301;28;20139;-88
2022/08/15 06:53:57;;;;;;;15.35;3.47;;;19.10;99.90;;;;;;5107532;28;20039;-90
2022/08/15 06:56:52;;;;;;;4.53;2.75;;;19.30;99.90;;;;;;5109441;28;20047;-88
2022/08/15 06:59:59;;;;;;;5.13;2.88;;;19.50;99.90;;;;;;5115715;28;20043;-87
2022/08/15 07:03:24;;;;;;;8.35;2.50;;;19.90;97.30;;;;;;5106055;28;20044;-88
2022/08/15 07:06:22;;;;;;;3.40;2.38;;;20.20;64.20;;;;;;5083289;28;20349;-86
2022/08/15 07:09:30;;;;;;;7.32;2.65;;;20.50;20.10;;;;;;5104281;28;20058;-88
2022/08/15 07:12:40;;;;;;;3.63;2.45;;;20.40;21.20;;;;;;5102538;28;20454;-89
2022/08/15 07:15:58;;;;;;;3.95;1.92;;;20.70;5.10;;;;;;5116584;28;20135;-87
2022/08/15 07:18:53;;;;;;;2.15;1.75;;;21.30;1.00;;;;;;5098938;28;20045;-89
2022/08/15 07:21:40;;;;;;;3.65;2.00;;;21.50;1.00;;;;;;5109582;28;20052;-93
2022/08/15 07:24:51;;;;;;;3.30;2.10;;;21.90;1.00;;;;;;5112831;28;20042;-88
2022/08/15 07:27:39;;;;;;;2.38;1.80;;;22.00;1.00;;;;;;5108759;28;20044;-88
2022/08/15 07:30:48;;;;;;;1.80;1.52;;;21.80;1.00;;;;;;5119614;28;20050;-93
2022/08/15 07:33:46;;;;;;;1.90;1.55;;;21.70;1.00;;;;;;5098098;28;20101;-91
2022/08/15 07:36:56;;;;;;;3.78;1.88;;;22.20;1.00;;;;;;5102540;28;20039;-86
2022/08/15 07:39:43;;;;;;;1.77;1.50;;;22.10;1.00;;;;;;5092477;28;20466;-86
2022/08/15 07:42:41;;;;;;;2.67;1.70;;;21.40;1.00;;;;;;5105196;28;20076;-90
2022/08/15 07:45:46;;;;;;;1.55;1.40;;;21.30;1.00;;;;;;5107087;27;20036;-90
2022/08/15 07:49:29;;;;;;;2.03;1.30;;;21.60;1.00;;;;;;5114768;27;20066;-87
2022/08/15 07:52:16;;;;;;;2.30;1.50;;;22.50;1.00;;;;;;5092453;27;20040;-87
2022/08/15 07:55:24;;;;;;;4.75;1.23;;;23.00;1.00;;;;;;5132143;27;20047;-88
2022/08/15 07:58:41;;;;;;;2.40;1.65;;;22.80;1.00;;;;;;5159822;27;20038;-89
2022/08/15 08:01:31;;;;;;;2.85;1.20;;;23.30;1.00;;;;;;5124458;28;20036;-89
2022/08/15 08:04:27;;;;;;;2.53;1.52;;;23.80;1.00;;;;;;5126337;27;20050;-89
2022/08/15 08:07:30;;;;;;;2.47;1.40;;;24.20;1.00;;;;;;5106655;27;20459;-88
2022/08/15 08:10:29;;;;;;;2.70;1.50;;;24.70;1.00;;;;;;5094870;27;20044;-85
2022/08/15 08:13:39;;;;;;;2.10;1.38;;;24.50;1.00;;;;;;5100354;28;20447;-87
2022/08/15 08:16:48;;;;;;;2.80;1.20;;;24.20;1.00;;;;;;5112710;27;20446;-86
2022/08/15 08:20:11;;;;;;;1.38;1.17;;;23.70;1.00;;;;;;5090597;27;20418;-89
2022/08/15 08:23:19;;;;;;;1.55;1.15;;;24.40;1.00;;;;;;5117413;27;20089;-86
2022/08/15 08:26:44;;;;;;;2.33;1.40;;;24.70;1.00;;;;;;5110987;28;20067;-84
2022/08/15 08:30:02;;;;;;;3.25;1.20;;;24.60;1.00;;;;;;5103491;27;20075;-84
2022/08/15 08:33:28;;;;;;;1.98;1.27;;;24.60;1.00;;;;;;5117070;27;20470;-88
2022/08/15 08:36:30;;;;;;;1.98;1.25;;;25.10;1.00;;;;;;5116476;27;20059;-90
2022/08/15 08:39:35;;;;;;;8.35;1.25;;;25.60;1.00;;;;;;5100651;27;20446;-84
2022/08/15 08:42:35;;;;;;;0.80;0.80;;;25.80;1.00;;;;;;5111181;27;20031;-86
2022/08/15 08:46:07;;;;;;;3.55;0.98;;;25.80;1.00;;;;;;5100686;28;20177;-89
2022/08/15 08:49:13;;;;;;;2.05;1.10;;;25.30;1.00;;;;;;5119048;27;20052;-88
2022/08/15 08:52:23;;;;;;;1.83;1.20;;;24.80;1.00;;;;;;5123129;27;20063;-85
2022/08/15 08:55:37;;;;;;;1.75;1.02;;;25.40;1.00;;;;;;5120400;28;20043;-88
2022/08/15 08:58:36;;;;;;;1.50;1.20;;;25.70;1.00;;;;;;5131621;27;20113;-90
2022/08/15 09:01:35;;;;;;;1.70;1.13;;;26.70;1.00;;;;;;5148062;27;20103;-86
2022/08/15 09:04:37;;;;;;;2.28;1.00;;;26.90;1.00;;;;;;5126659;27;20116;-86
2022/08/15 09:07:30;;;;;;;0.90;0.90;;;26.50;1.00;;;;;;5114114;28;20060;-88
2022/08/15 09:10:29;;;;;;;2.30;1.20;;;27.00;1.00;;;;;;5119594;27;20039;-85
2022/08/15 09:13:36;;;;;;;1.70;1.20;;;26.50;1.00;;;;;;5121052;27;20128;-83
2022/08/15 09:16:34;;;;;;;1.52;1.33;;;26.70;1.00;;;;;;5136234;27;20052;-86
2022/08/15 09:19:38;;;;;;;1.25;1.15;;;27.10;99.90;;;;;;5136660;27;20070;-81
2022/08/15 09:22:30;;;;;;;2.00;1.20;;;27.40;99.90;;;;;;5143148;27;20028;-83
2022/08/15 09:25:20;;;;;;;2.47;1.35;;;27.50;99.90;;;;;;5128862;28;20054;-86
2022/08/15 09:28:37;;;;;;;1.23;1.13;;;27.10;99.90;;;;;;5136937;27;20047;-89
2022/08/15 09:31:27;;;;;;;1.38;1.05;;;27.50;99.90;;;;;;5101276;28;20054;-90
2022/08/15 09:34:37;;;;;;;1.48;1.17;;;28.30;99.90;;;;;;5116471;27;20043;-89
2022/08/15 09:37:36;;;;;;;1.80;1.20;;;29.30;99.90;;;;;;5109832;27;20055;-90
2022/08/15 09:41:09;;;;;;;1.33;0.88;;;29.90;99.90;;;;;;5095415;28;20043;-90
2022/08/15 09:44:33;;;;;;;4.50;1.30;;;29.10;99.90;;;;;;5101738;27;20449;-88
2022/08/15 09:47:24;;;;;;;1.80;1.20;;;30.00;99.90;;;;;;5109306;28;20092;-88
2022/08/15 09:50:52;;;;;;;2.15;1.48;;;29.90;99.90;;;;;;5117243;27;20077;-92
2022/08/15 09:54:03;;;;;;;1.60;1.10;;;29.10;99.90;;;;;;5112273;27;20055;-92
2022/08/15 09:57:25;;;;;;;1.85;1.13;;;29.10;99.90;;;;;;5113272;27;20104;-89
2022/08/15 10:00:52;;;;;;;2.47;1.45;;;29.80;99.90;;;;;;5118241;27;20053;-91
2022/08/15 10:03:54;;;;;;;2.22;1.02;;;29.70;99.90;;;;;;5109520;27;20047;-87
2022/08/15 10:07:03;;;;;;;1.20;1.05;;;29.80;99.90;;;;;;5100475;28;20044;-88
2022/08/15 10:10:19;;;;;;;3.33;1.05;;;30.60;99.90;;;;;;5116453;27;20055;-88
2022/08/15 10:13:06;;;;;;;1.30;1.00;;;31.70;99.90;;;;;;5075735;27;20051;-90
2022/08/15 10:15:56;;;;;;;2.13;1.40;;;31.00;99.90;;;;;;5100213;28;20055;-87
2022/08/15 10:18:51;;;;;;;2.63;1.65;;;30.10;99.90;;;;;;5112972;28;20043;-87
2022/08/15 10:21:44;;;;;;;2.08;1.33;;;30.30;99.90;;;;;;5106247;27;20043;-86
2022/08/15 10:24:34;;;;;;;3.08;1.05;;;30.10;99.90;;;;;;5108385;28;20055;-86
2022/08/15 10:27:23;;;;;;;1.80;1.27;;;30.10;99.90;;;;;;5100583;28;20056;-86
2022/08/15 10:30:19;;;;;;;2.22;1.40;;;30.90;99.90;;;;;;5111868;28;20090;-87
2022/08/15 10:33:35;;;;;;;1.15;1.05;;;31.20;99.90;;;;;;5088137;28;20126;-89
2022/08/15 10:36:29;;;;;;;2.47;1.15;;;31.60;99.90;;;;;;5114768;27;20112;-89
2022/08/15 10:39:57;;;;;;;3.63;1.35;;;30.80;99.90;;;;;;5110696;27;20335;-87
2022/08/15 10:43:07;;;;;;;1.83;1.23;;;31.30;99.90;;;;;;5115507;28;20044;-89
2022/08/15 10:46:17;;;;;;;2.13;1.30;;;32.60;99.90;;;;;;5098725;28;20052;-91
2022/08/15 10:49:12;;;;;;;2.53;1.10;;;33.50;99.90;;;;;;5118709;28;20436;-88
2022/08/15 10:52:33;;;;;;;1.98;1.30;;;34.10;99.90;;;;;;5124829;27;20393;-90
2022/08/15 10:55:32;;;;;;;2.45;1.40;;;32.30;99.90;;;;;;5103996;28;20056;-89
2022/08/15 10:58:42;;;;;;;2.95;1.38;;;30.70;99.90;;;;;;5130091;28;20530;-90
2022/08/15 11:01:44;;;;;;;2.85;1.55;;;29.10;99.90;;;;;;5121826;28;20101;-91
2022/08/15 11:04:38;;;;;;;3.15;1.58;;;28.20;99.90;;;;;;5116734;28;20054;-89
2022/08/15 11:07:49;;;;;;;5.10;2.00;;;29.50;99.90;;;;;;5125725;28;20072;-89
2022/08/15 11:10:45;;;;;;;1.95;1.60;;;29.10;99.90;;;;;;5129352;28;20044;-89
2022/08/15 11:13:34;;;;;;;2.95;1.52;;;30.20;99.90;;;;;;5118351;28;20044;-84
2022/08/15 11:16:36;;;;;;;1.98;1.42;;;32.20;99.90;;;;;;5128832;28;20061;-89
2022/08/15 11:19:38;;;;;;;2.22;1.42;;;32.60;99.90;;;;;;5159239;27;20039;-82
2022/08/15 11:22:51;;;;;;;1.70;1.60;;;32.20;99.90;;;;;;5151005;27;20038;-82
2022/08/15 11:25:43;;;;;;;2.35;1.42;;;31.10;99.90;;;;;;5160569;27;20027;-83
2022/08/15 11:28:31;;;;;;;3.55;1.80;;;31.00;99.90;;;;;;5160788;27;20019;-88
2022/08/15 11:31:53;;;;;;;2.15;1.58;;;31.00;99.90;;;;;;5156237;27;20075;-88
2022/08/15 11:34:47;;;;;;;2.10;1.55;;;31.30;99.90;;;;;;5123925;27;20050;-88
2022/08/15 11:37:42;;;;;;;2.05;1.80;;;32.00;99.90;;;;;;5123525;27;20047;-89
2022/08/15 11:40:43;;;;;;;2.75;1.35;;;32.50;99.90;;;;;;5107807;27;20055;-89
2022/08/15 11:43:32;;;;;;;4.10;1.77;;;33.60;99.90;;;;;;5118141;27;20062;-90
2022/08/15 11:46:21;;;;;;;2.67;1.60;;;33.60;99.90;;;;;;5109924;27;20380;-92
2022/08/15 11:49:34;;;;;;;2.65;1.85;;;32.90;99.90;;;;;;5124608;27;20067;-89
2022/08/15 11:52:32;;;;;;;1.83;1.50;;;33.60;99.90;;;;;;5137739;27;20099;-88
2022/08/15 11:55:36;;;;;;;2.47;1.50;;;34.30;99.90;;;;;;5136884;27;20102;-87
2022/08/15 11:58:44;;;;;;;2.63;1.48;;;35.30;99.90;;;;;;5145746;27;20031;-84
2022/08/15 12:02:19;;;;;;;2.15;1.65;;;35.30;99.90;;;;;;5149146;27;20052;-85
2022/08/15 12:05:33;;;;;;;2.13;1.60;;;32.60;99.90;;;;;;5138059;27;20091;-88
2022/08/15 12:08:45;;;;;;;1.67;1.58;;;30.50;99.90;;;;;;5127382;27;20062;-82
2022/08/15 12:11:53;;;;;;;2.15;1.52;;;31.40;99.90;;;;;;5128441;27;20104;-82
2022/08/15 12:14:46;;;;;;;1.75;1.40;;;31.50;99.90;;;;;;5132754;28;20054;-87
2022/08/15 12:17:35;;;;;;;1.67;1.58;;;31.60;99.90;;;;;;5116540;27;21335;-91
2022/08/15 12:20:47;;;;;;;3.08;1.75;;;31.90;99.90;;;;;;5124145;27;20043;-92
2022/08/15 12:23:42;;;;;;;3.28;2.05;;;31.40;99.90;;;;;;5125035;27;20458;-88
2022/08/15 12:26:34;;;;;;;3.05;2.15;;;29.60;99.90;;;;;;5110796;28;20366;-92
2022/08/15 12:29:34;;;;;;;3.33;2.10;;;28.80;99.90;;;;;;5118725;27;20123;-88
2022/08/15 12:32:22;;;;;;;2.83;1.98;;;29.30;99.90;;;;;;5120762;27;20169;-91
2022/08/15 12:35:22;;;;;;;2.92;2.10;;;29.10;99.90;;;;;;5119187;27;20051;-90
2022/08/15 12:38:35;;;;;;;3.53;2.10;;;28.40;99.90;;;;;;5120206;27;20087;-88
2022/08/15 12:41:25;;;;;;;4.00;2.03;;;27.60;99.90;;;;;;5109196;27;20046;-89
2022/08/15 12:44:38;;;;;;;2.70;1.95;;;27.40;99.90;;;;;;5101696;27;20419;-86
2022/08/15 12:47:30;;;;;;;2.55;2.05;;;27.30;99.90;;;;;;5103063;28;20048;-87
2022/08/15 12:50:37;;;;;;;2.83;1.92;;;27.60;99.90;;;;;;5106500;27;20071;-90
2022/08/15 12:53:28;;;;;;;4.15;2.03;;;28.00;99.90;;;;;;5130672;27;20043;-90
2022/08/15 12:56:17;;;;;;;3.50;1.83;;;29.70;99.90;;;;;;5116900;27;20054;-86
2022/08/15 12:59:17;;;;;;;4.00;1.83;;;32.40;99.90;;;;;;5122223;27;20098;-89
2022/08/15 13:02:07;;;;;;;3.50;1.90;;;33.10;99.90;;;;;;5113809;27;20115;-89
2022/08/15 13:04:57;;;;;;;3.60;1.50;;;32.30;99.90;;;;;;5104018;27;20355;-88
2022/08/15 13:07:58;;;;;;;2.60;1.60;;;31.40;99.90;;;;;;5102909;27;20097;-88
2022/08/15 13:11:08;;;;;;;3.10;1.60;;;31.50;99.90;;;;;;5110739;27;20050;-88
2022/08/15 13:14:06;;;;;;;4.93;1.70;;;31.90;99.90;;;;;;5120753;27;20081;-90
2022/08/15 13:16:54;;;;;;;1.90;1.70;;;31.30;99.90;;;;;;5113198;27;20055;-89
2022/08/15 13:26:29;;;;;;;4.25;1.70;;;30.30;99.90;;;;;;5118366;27;20143;-88
2022/08/15 13:29:24;;;;;;;3.17;1.60;;;30.30;99.90;;;;;;5116765;27;20131;-91
2022/08/15 13:32:15;;;;;;;3.33;2.03;;;31.80;99.90;;;;;;5109973;27;20054;-89
2022/08/15 13:35:12;;;;;;;2.53;2.05;;;34.10;99.90;;;;;;5111106;27;20043;-90
2022/08/15 13:38:02;;;;;;;5.72;1.83;;;35.80;99.90;;;;;;5111171;27;20123;-90
2022/08/15 13:40:55;;;;;;;3.22;1.88;;;36.70;99.90;;;;;;5122995;27;20442;-89
2022/08/15 13:43:44;;;;;;;3.80;2.03;;;36.70;99.90;;;;;;5101342;27;20040;-87
2022/08/15 13:46:44;;;;;;;;;;;35.60;99.90;;;;;;5105474;27;20046;-90
2022/08/15 13:49:37;;;;;;;1.63;1.50;;;34.70;99.90;;;;;;5103810;28;19951;-89
2022/08/15 13:52:27;;;;;;;3.75;2.05;;;34.70;99.90;;;;;;5095658;28;20043;-89
2022/08/15 13:55:34;;;;;;;5.32;2.58;;;33.20;99.90;;;;;;5114189;27;20121;-88
2022/08/15 13:58:28;;;;;;;7.47;2.67;;;30.80;99.90;;;;;;5114920;27;20048;-90
2022/08/15 14:01:25;;;;;;;4.90;2.00;;;29.50;99.90;;;;;;5110934;27;20453;-90
2022/08/15 14:04:37;;;;;;;3.35;2.05;;;28.50;99.90;;;;;;5101751;27;20039;-91
2022/08/15 14:07:30;;;;;;;5.18;2.42;;;27.90;99.90;;;;;;5119673;27;20091;-90
2022/08/15 14:10:38;;;;;;;4.10;1.88;;;27.60;99.90;;;;;;5114060;27;20442;-87
2022/08/15 14:13:45;;;;;;;2.97;2.03;;;27.20;99.90;;;;;;5117853;27;20044;-89
2022/08/15 14:16:39;;;;;;;6.40;2.70;;;26.90;99.90;;;;;;5108609;27;20420;-89
2022/08/15 14:19:48;;;;;;;2.22;2.00;;;26.70;99.90;;;;;;5112180;27;20039;-89
2022/08/15 14:22:52;;;;;;;4.00;2.50;;;26.50;99.90;;;;;;5101246;28;20047;-88
2022/08/15 14:25:44;;;;;;;4.10;2.15;;;25.90;99.90;;;;;;5112489;27;20047;-88
2022/08/15 14:28:53;;;;;;;5.93;2.17;;;25.30;99.90;;;;;;5122400;27;20039;-86
2022/08/15 14:31:50;;;;;;;3.65;1.63;;;24.40;99.90;;;;;;5110814;27;20454;-88
2022/08/15 14:34:43;;;;;;;5.28;1.83;;;24.10;99.90;;;;;;5094428;28;20131;-83
2022/08/15 14:37:47;;;;;;;3.65;1.65;;;23.30;99.90;;;;;;5116254;27;20066;-85
2022/08/15 14:40:38;;;;;;;5.38;1.70;;;22.70;99.90;;;;;;5124156;27;20040;-86
2022/08/15 14:43:27;;;;;;;5.68;1.60;;;22.50;99.90;;;;;;5113944;27;20405;-85
2022/08/15 14:46:18;;;;;;;4.03;1.60;;;22.40;99.90;;;;;;5106736;28;20050;-84
2022/08/15 14:49:23;;;;;;;7.35;1.55;;;21.90;99.90;;;;;;5102650;28;20062;-84
2022/08/15 14:52:30;;;;;;;4.05;1.55;;;21.40;1.00;;;;;;5100762;27;20084;-88
2022/08/15 14:55:21;;;;;;;4.30;1.50;;;21.10;1.00;;;;;;5098630;28;20119;-85
2022/08/15 14:58:12;;;;;;;4.10;1.40;;;20.80;1.00;;;;;;5111766;28;20047;-86
2022/08/15 15:01:20;;;;;;;4.55;1.67;;;20.60;1.00;;;;;;5101028;28;20050;-87
2022/08/15 15:04:15;;;;;;;2.83;1.30;;;20.20;1.00;;;;;;5109917;28;20059;-85
2022/08/15 15:07:08;;;;;;;3.53;1.23;;;20.00;1.00;;;;;;5117651;28;20043;-84
2022/08/15 15:10:08;;;;;;;2.70;1.40;;;20.00;1.00;;;;;;5111295;28;20365;-88
2022/08/15 15:13:14;;;;;;;3.88;1.38;;;20.00;1.00;;;;;;5092243;28;20047;-87
2022/08/15 15:16:01;;;;;;;3.97;1.40;;;20.20;1.00;;;;;;5115217;28;20047;-85
2022/08/15 15:19:12;;;;;;;3.70;2.20;;;20.40;1.00;;;;;;5114859;28;20070;-87
2022/08/15 15:22:03;;;;;;;2.90;1.70;;;20.70;1.00;;;;;;5113106;28;20047;-88
2022/08/15 15:24:51;;;;;;;2.92;1.55;;;21.20;1.00;;;;;;5107234;28;20055;-88
2022/08/15 15:27:40;;;;;;;2.60;1.35;;;21.80;1.00;;;;;;5107360;28;20048;-89
2022/08/15 15:30:47;;;;;;;3.58;1.08;;;22.90;1.00;;;;;;5103201;28;20076;-85
2022/08/15 15:33:37;;;;;;;2.08;1.20;;;23.70;99.90;;;;;;5099098;28;20543;-90
2022/08/15 15:36:36;;;;;;;1.90;1.10;;;23.80;99.90;;;;;;5109751;28;20047;-87
2022/08/15 15:39:24;;;;;;;2.45;1.00;;;24.70;99.90;;;;;;5104327;28;20055;-88
2022/08/15 15:42:31;;;;;;;2.38;0.90;;;26.00;99.90;;;;;;5102681;28;20487;-88
2022/08/15 15:45:20;;;;;;;1.52;1.33;;;27.00;99.90;;;;;;5098885;28;20051;-87
2022/08/15 15:48:12;;;;;;;1.88;1.10;;;27.50;99.90;;;;;;5098455;28;20050;-87
2022/08/15 15:51:17;;;;;;;3.20;1.10;;;27.30;99.90;;;;;;5112671;28;20082;-89
2022/08/15 15:54:05;;;;;;;2.80;1.00;;;27.10;99.90;;;;;;5121665;28;20055;-87
2022/08/15 15:57:16;;;;;;;1.30;1.00;;;26.60;99.90;;;;;;5097318;28;20124;-87
2022/08/15 16:00:10;;;;;;;2.03;1.10;;;25.30;99.90;;;;;;5121863;28;20050;-87